sensor_id;sensor_type;location;lat;lon;timestamp;temperature;humidity
14893;DHT22;7538;53.626;9.906;2022-12-29T00:00:10;8.60;99.90
14893;DHT22;7538;53.626;9.906;2022-12-29T00:02:37;8.70;99.90
14893;DHT22;7538;53.626;9.906;2022-12-29T00:05:05;8.70;99.90
14893;DHT22;7538;53.626;9.906;2022-12-29T00:07:32;8.70;99.90
14893;DHT22;7538;53.626;9.906;2022-12-29T00:10:00;8.80;99.90
14893;DHT22;7538;53.626;9.906;2022-12-29T00:12:27;8.80;99.90
14893;DHT22;7538;53.626;9.906;2022-12-29T00:15:15;8.80;99.90
14893;DHT22;7538;53.626;9.906;2022-12-29T00:17:59;8.80;99.90
14893;DHT22;7538;53.626;9.906;2022-12-29T00:20:27;8.80;99.90
14893;DHT22;7538;53.626;9.906;2022-12-29T00:23:11;8.80;99.90
14893;DHT22;7538;53.626;9.906;2022-12-29T00:25:57;8.90;99.90
14893;DHT22;7538;53.626;9.906;2022-12-29T00:28:41;8.90;99.90
14893;DHT22;7538;53.626;9.906;2022-12-29T00:31:25;8.90;99.90
14893;DHT22;7538;53.626;9.906;2022-12-29T00:34:10;8.90;99.90
14893;DHT22;7538;53.626;9.906;2022-12-29T00:36:56;9.00;99.90
14893;DHT22;7538;53.626;9.906;2022-12-29T00:39:23;9.00;99.90
14893;DHT22;7538;53.626;9.906;2022-12-29T00:42:09;9.00;99.90
14893;DHT22;7538;53.626;9.906;2022-12-29T00:44:53;9.00;99.90
14893;DHT22;7538;53.626;9.906;2022-12-29T00:47:20;9.00;99.90
14893;DHT22;7538;53.626;9.906;2022-12-29T00:49:47;9.10;99.90
14893;DHT22;7538;53.626;9.906;2022-12-29T00:52:13;9.10;99.90
14893;DHT22;7538;53.626;9.906;2022-12-29T00:54:41;9.10;99.90
14893;DHT22;7538;53.626;9.906;2022-12-29T00:57:11;9.20;99.90
14893;DHT22;7538;53.626;9.906;2022-12-29T00:59:40;9.20;99.90
14893;DHT22;7538;53.626;9.906;2022-12-29T01:02:08;9.20;99.90
14893;DHT22;7538;53.626;9.906;2022-12-29T01:04:35;9.30;99.90
14893;DHT22;7538;53.626;9.906;2022-12-29T01:07:02;9.30;99.90
14893;DHT22;7538;53.626;9.906;2022-12-29T01:09:29;9.30;99.90
14893;DHT22;7538;53.626;9.906;2022-12-29T01:12:14;9.30;99.90
14893;DHT22;7538;53.626;9.906;2022-12-29T01:14:41;9.20;99.90
14893;DHT22;7538;53.626;9.906;2022-12-29T01:17:08;9.20;99.90
14893;DHT22;7538;53.626;9.906;2022-12-29T01:19:35;9.20;99.90
14893;DHT22;7538;53.626;9.906;2022-12-29T01:22:02;9.30;99.90
14893;DHT22;7538;53.626;9.906;2022-12-29T01:24:28;9.30;99.90
14893;DHT22;7538;53.626;9.906;2022-12-29T01:26:55;9.30;99.90
14893;DHT22;7538;53.626;9.906;2022-12-29T01:29:23;9.30;99.90
14893;DHT22;7538;53.626;9.906;2022-12-29T01:31:50;9.30;99.90
14893;DHT22;7538;53.626;9.906;2022-12-29T01:34:17;9.30;99.90
14893;DHT22;7538;53.626;9.906;2022-12-29T01:36:44;9.40;99.90
14893;DHT22;7538;53.626;9.906;2022-12-29T01:39:11;9.40;99.90
14893;DHT22;7538;53.626;9.906;2022-12-29T01:41:38;9.40;99.90
14893;DHT22;7538;53.626;9.906;2022-12-29T01:44:47;9.40;99.90
14893;DHT22;7538;53.626;9.906;2022-12-29T01:47:21;9.50;99.90
14893;DHT22;7538;53.626;9.906;2022-12-29T01:49:50;9.50;99.90
14893;DHT22;7538;53.626;9.906;2022-12-29T01:52:17;9.50;99.90
14893;DHT22;7538;53.626;9.906;2022-12-29T01:54:47;9.50;99.90
14893;DHT22;7538;53.626;9.906;2022-12-29T01:57:16;9.50;99.90
14893;DHT22;7538;53.626;9.906;2022-12-29T01:59:49;9.50;99.90
14893;DHT22;7538;53.626;9.906;2022-12-29T02:02:17;9.50;99.90
14893;DHT22;7538;53.626;9.906;2022-12-29T02:04:44;9.50;99.90
14893;DHT22;7538;53.626;9.906;2022-12-29T02:07:17;9.50;99.90
14893;DHT22;7538;53.626;9.906;2022-12-29T02:09:46;9.50;99.90
14893;DHT22;7538;53.626;9.906;2022-12-29T02:12:14;9.60;99.90
14893;DHT22;7538;53.626;9.906;2022-12-29T02:14:41;9.60;99.90
14893;DHT22;7538;53.626;9.906;2022-12-29T02:17:16;9.60;99.90
14893;DHT22;7538;53.626;9.906;2022-12-29T02:20:25;9.60;99.90
14893;DHT22;7538;53.626;9.906;2022-12-29T02:23:08;9.60;99.90
14893;DHT22;7538;53.626;9.906;2022-12-29T02:25:52;9.60;99.90
14893;DHT22;7538;53.626;9.906;2022-12-29T02:31:29;9.60;99.90
14893;DHT22;7538;53.626;9.906;2022-12-29T02:34:05;9.60;99.90
14893;DHT22;7538;53.626;9.906;2022-12-29T02:36:42;9.60;99.90
14893;DHT22;7538;53.626;9.906;2022-12-29T02:39:15;9.60;99.90
14893;DHT22;7538;53.626;9.906;2022-12-29T02:41:57;9.60;99.90
14893;DHT22;7538;53.626;9.906;2022-12-29T02:44:27;9.60;99.90
14893;DHT22;7538;53.626;9.906;2022-12-29T02:47:02;9.70;99.90
14893;DHT22;7538;53.626;9.906;2022-12-29T02:49:36;9.70;99.90
14893;DHT22;7538;53.626;9.906;2022-12-29T02:52:06;9.70;99.90
14893;DHT22;7538;53.626;9.906;2022-12-29T02:54:36;9.70;99.90
14893;DHT22;7538;53.626;9.906;2022-12-29T02:57:11;9.80;99.90
14893;DHT22;7538;53.626;9.906;2022-12-29T02:59:39;9.80;99.90
14893;DHT22;7538;53.626;9.906;2022-12-29T03:02:20;9.80;99.90
14893;DHT22;7538;53.626;9.906;2022-12-29T03:05:15;9.90;99.90
14893;DHT22;7538;53.626;9.906;2022-12-29T03:07:48;9.90;99.90
14893;DHT22;7538;53.626;9.906;2022-12-29T03:10:29;9.90;99.90
14893;DHT22;7538;53.626;9.906;2022-12-29T03:13:04;10.00;99.90
14893;DHT22;7538;53.626;9.906;2022-12-29T03:15:55;10.00;99.90
14893;DHT22;7538;53.626;9.906;2022-12-29T03:18:37;10.00;99.90
14893;DHT22;7538;53.626;9.906;2022-12-29T03:21:11;10.00;99.90
14893;DHT22;7538;53.626;9.906;2022-12-29T03:23:41;10.00;99.90
14893;DHT22;7538;53.626;9.906;2022-12-29T03:26:10;10.00;99.90
14893;DHT22;7538;53.626;9.906;2022-12-29T03:28:41;10.00;99.90
14893;DHT22;7538;53.626;9.906;2022-12-29T03:31:10;10.00;99.90
14893;DHT22;7538;53.626;9.906;2022-12-29T03:33:41;10.00;99.90
14893;DHT22;7538;53.626;9.906;2022-12-29T03:36:15;10.00;99.90
14893;DHT22;7538;53.626;9.906;2022-12-29T03:38:46;10.00;99.90
14893;DHT22;7538;53.626;9.906;2022-12-29T03:41:18;10.00;99.90
14893;DHT22;7538;53.626;9.906;2022-12-29T03:43:47;10.00;99.90
14893;DHT22;7538;53.626;9.906;2022-12-29T03:46:14;10.00;99.90
14893;DHT22;7538;53.626;9.906;2022-12-29T03:48:42;10.10;99.90
14893;DHT22;7538;53.626;9.906;2022-12-29T03:51:09;10.10;99.90
14893;DHT22;7538;53.626;9.906;2022-12-29T03:53:36;10.10;99.90
14893;DHT22;7538;53.626;9.906;2022-12-29T03:56:03;10.10;99.90
14893;DHT22;7538;53.626;9.906;2022-12-29T03:58:30;10.10;99.90
14893;DHT22;7538;53.626;9.906;2022-12-29T04:00:57;10.10;99.90
14893;DHT22;7538;53.626;9.906;2022-12-29T04:03:24;10.10;99.90
14893;DHT22;7538;53.626;9.906;2022-12-29T04:05:52;10.10;99.90
14893;DHT22;7538;53.626;9.906;2022-12-29T04:08:19;10.20;99.90
14893;DHT22;7538;53.626;9.906;2022-12-29T04:10:45;10.10;99.90
14893;DHT22;7538;53.626;9.906;2022-12-29T04:13:14;10.20;99.90
14893;DHT22;7538;53.626;9.906;2022-12-29T04:15:42;10.20;99.90
14893;DHT22;7538;53.626;9.906;2022-12-29T04:18:09;10.20;99.90
14893;DHT22;7538;53.626;9.906;2022-12-29T04:20:35;10.10;99.90
14893;DHT22;7538;53.626;9.906;2022-12-29T04:23:21;10.20;99.90
14893;DHT22;7538;53.626;9.906;2022-12-29T04:25:48;10.20;99.90
14893;DHT22;7538;53.626;9.906;2022-12-29T04:28:15;10.20;99.90
14893;DHT22;7538;53.626;9.906;2022-12-29T04:30:42;10.20;99.90
14893;DHT22;7538;53.626;9.906;2022-12-29T04:33:10;10.20;99.90
14893;DHT22;7538;53.626;9.906;2022-12-29T04:35:37;10.20;99.90
14893;DHT22;7538;53.626;9.906;2022-12-29T04:38:03;10.20;99.90
14893;DHT22;7538;53.626;9.906;2022-12-29T04:40:32;10.30;99.90
14893;DHT22;7538;53.626;9.906;2022-12-29T04:42:58;10.30;99.90
14893;DHT22;7538;53.626;9.906;2022-12-29T04:45:25;10.30;99.90
14893;DHT22;7538;53.626;9.906;2022-12-29T04:47:52;10.30;99.90
14893;DHT22;7538;53.626;9.906;2022-12-29T04:50:19;10.40;99.90
14893;DHT22;7538;53.626;9.906;2022-12-29T04:52:46;10.40;99.90
14893;DHT22;7538;53.626;9.906;2022-12-29T04:55:13;10.50;99.90
14893;DHT22;7538;53.626;9.906;2022-12-29T04:57:41;10.50;99.90
14893;DHT22;7538;53.626;9.906;2022-12-29T05:00:09;10.60;99.90
14893;DHT22;7538;53.626;9.906;2022-12-29T05:02:36;10.60;99.90
14893;DHT22;7538;53.626;9.906;2022-12-29T05:05:03;10.60;99.90
14893;DHT22;7538;53.626;9.906;2022-12-29T05:07:30;10.70;99.90
14893;DHT22;7538;53.626;9.906;2022-12-29T05:09:58;10.70;99.90
14893;DHT22;7538;53.626;9.906;2022-12-29T05:12:25;10.70;99.90
14893;DHT22;7538;53.626;9.906;2022-12-29T05:14:53;10.70;99.90
14893;DHT22;7538;53.626;9.906;2022-12-29T05:17:20;10.60;99.90
14893;DHT22;7538;53.626;9.906;2022-12-29T05:19:47;10.50;99.90
14893;DHT22;7538;53.626;9.906;2022-12-29T05:22:14;10.50;99.90
14893;DHT22;7538;53.626;9.906;2022-12-29T05:24:41;10.50;99.90
14893;DHT22;7538;53.626;9.906;2022-12-29T05:27:07;10.40;99.90
14893;DHT22;7538;53.626;9.906;2022-12-29T05:29:34;10.40;99.90
14893;DHT22;7538;53.626;9.906;2022-12-29T05:32:03;10.40;99.90
14893;DHT22;7538;53.626;9.906;2022-12-29T05:34:30;13.40;99.90
14893;DHT22;7538;53.626;9.906;2022-12-29T05:36:56;10.50;99.90
14893;DHT22;7538;53.626;9.906;2022-12-29T05:39:23;10.50;99.90
14893;DHT22;7538;53.626;9.906;2022-12-29T05:41:50;10.50;99.90
14893;DHT22;7538;53.626;9.906;2022-12-29T05:44:17;10.50;99.90
14893;DHT22;7538;53.626;9.906;2022-12-29T05:46:44;10.50;99.90
14893;DHT22;7538;53.626;9.906;2022-12-29T05:49:12;10.50;99.90
14893;DHT22;7538;53.626;9.906;2022-12-29T05:51:39;10.50;99.90
14893;DHT22;7538;53.626;9.906;2022-12-29T05:54:06;10.50;99.90
14893;DHT22;7538;53.626;9.906;2022-12-29T05:56:33;10.40;99.90
14893;DHT22;7538;53.626;9.906;2022-12-29T05:59:00;10.40;99.90
14893;DHT22;7538;53.626;9.906;2022-12-29T06:01:26;10.40;99.90
14893;DHT22;7538;53.626;9.906;2022-12-29T06:03:53;10.40;99.90
14893;DHT22;7538;53.626;9.906;2022-12-29T06:06:22;10.40;99.90
14893;DHT22;7538;53.626;9.906;2022-12-29T06:08:49;10.40;99.90
14893;DHT22;7538;53.626;9.906;2022-12-29T06:11:15;10.40;99.90
14893;DHT22;7538;53.626;9.906;2022-12-29T06:13:42;10.40;99.90
14893;DHT22;7538;53.626;9.906;2022-12-29T06:16:09;10.40;99.90
14893;DHT22;7538;53.626;9.906;2022-12-29T06:18:36;10.40;99.90
14893;DHT22;7538;53.626;9.906;2022-12-29T06:21:04;10.40;99.90
14893;DHT22;7538;53.626;9.906;2022-12-29T06:23:32;10.40;99.90
14893;DHT22;7538;53.626;9.906;2022-12-29T06:25:59;10.40;99.90
14893;DHT22;7538;53.626;9.906;2022-12-29T06:28:26;10.40;99.90
14893;DHT22;7538;53.626;9.906;2022-12-29T06:30:53;10.50;99.90
14893;DHT22;7538;53.626;9.906;2022-12-29T06:33:19;10.50;99.90
14893;DHT22;7538;53.626;9.906;2022-12-29T06:35:46;10.40;99.90
14893;DHT22;7538;53.626;9.906;2022-12-29T06:38:13;10.50;99.90
14893;DHT22;7538;53.626;9.906;2022-12-29T06:40:41;12.40;99.90
14893;DHT22;7538;53.626;9.906;2022-12-29T06:43:10;10.50;99.90
14893;DHT22;7538;53.626;9.906;2022-12-29T06:45:38;10.40;99.90
14893;DHT22;7538;53.626;9.906;2022-12-29T06:48:06;10.60;99.90
14893;DHT22;7538;53.626;9.906;2022-12-29T06:50:33;10.40;99.90
14893;DHT22;7538;53.626;9.906;2022-12-29T06:52:59;10.40;99.90
14893;DHT22;7538;53.626;9.906;2022-12-29T06:55:26;10.40;99.90
14893;DHT22;7538;53.626;9.906;2022-12-29T06:57:55;10.40;99.90
14893;DHT22;7538;53.626;9.906;2022-12-29T07:00:23;10.40;99.90
14893;DHT22;7538;53.626;9.906;2022-12-29T07:02:50;10.40;99.90
14893;DHT22;7538;53.626;9.906;2022-12-29T07:05:16;10.40;99.90
14893;DHT22;7538;53.626;9.906;2022-12-29T07:07:43;10.40;99.90
14893;DHT22;7538;53.626;9.906;2022-12-29T07:10:10;10.30;99.90
14893;DHT22;7538;53.626;9.906;2022-12-29T07:12:37;10.30;99.90
14893;DHT22;7538;53.626;9.906;2022-12-29T07:15:06;10.30;99.90
14893;DHT22;7538;53.626;9.906;2022-12-29T07:17:33;10.30;99.90
14893;DHT22;7538;53.626;9.906;2022-12-29T07:20:00;10.30;99.90
14893;DHT22;7538;53.626;9.906;2022-12-29T07:22:27;10.30;99.90
14893;DHT22;7538;53.626;9.906;2022-12-29T07:24:53;10.30;99.90
14893;DHT22;7538;53.626;9.906;2022-12-29T07:27:20;10.20;99.90
14893;DHT22;7538;53.626;9.906;2022-12-29T07:29:47;10.30;99.90
14893;DHT22;7538;53.626;9.906;2022-12-29T07:32:15;10.30;99.90
14893;DHT22;7538;53.626;9.906;2022-12-29T07:34:42;10.30;99.90
14893;DHT22;7538;53.626;9.906;2022-12-29T07:37:10;10.30;99.90
14893;DHT22;7538;53.626;9.906;2022-12-29T07:39:37;10.30;99.90
14893;DHT22;7538;53.626;9.906;2022-12-29T07:42:04;10.30;99.90
14893;DHT22;7538;53.626;9.906;2022-12-29T07:44:31;10.30;99.90
14893;DHT22;7538;53.626;9.906;2022-12-29T07:46:58;10.40;99.90
14893;DHT22;7538;53.626;9.906;2022-12-29T07:49:26;10.30;99.90
14893;DHT22;7538;53.626;9.906;2022-12-29T07:51:53;10.40;99.90
14893;DHT22;7538;53.626;9.906;2022-12-29T07:54:20;10.40;99.90
14893;DHT22;7538;53.626;9.906;2022-12-29T07:56:48;10.40;99.90
14893;DHT22;7538;53.626;9.906;2022-12-29T07:59:14;10.40;99.90
14893;DHT22;7538;53.626;9.906;2022-12-29T08:01:41;10.40;99.90
14893;DHT22;7538;53.626;9.906;2022-12-29T08:04:08;10.40;99.90
14893;DHT22;7538;53.626;9.906;2022-12-29T08:06:36;10.40;99.90
14893;DHT22;7538;53.626;9.906;2022-12-29T08:09:03;10.40;99.90
14893;DHT22;7538;53.626;9.906;2022-12-29T08:11:30;10.40;99.90
14893;DHT22;7538;53.626;9.906;2022-12-29T08:13:57;10.50;99.90
14893;DHT22;7538;53.626;9.906;2022-12-29T08:16:24;10.50;99.90
14893;DHT22;7538;53.626;9.906;2022-12-29T08:18:50;10.50;99.90
14893;DHT22;7538;53.626;9.906;2022-12-29T08:21:17;10.50;99.90
14893;DHT22;7538;53.626;9.906;2022-12-29T08:23:46;10.50;99.90
14893;DHT22;7538;53.626;9.906;2022-12-29T08:26:13;10.50;99.90
14893;DHT22;7538;53.626;9.906;2022-12-29T08:28:40;10.50;99.90
14893;DHT22;7538;53.626;9.906;2022-12-29T08:31:07;10.50;99.90
14893;DHT22;7538;53.626;9.906;2022-12-29T08:33:34;10.50;99.90
14893;DHT22;7538;53.626;9.906;2022-12-29T08:36:01;10.50;99.90
14893;DHT22;7538;53.626;9.906;2022-12-29T08:38:28;10.60;99.90
14893;DHT22;7538;53.626;9.906;2022-12-29T08:40:57;10.70;99.90
14893;DHT22;7538;53.626;9.906;2022-12-29T08:43:25;10.80;99.90
14893;DHT22;7538;53.626;9.906;2022-12-29T08:45:51;11.00;99.90
14893;DHT22;7538;53.626;9.906;2022-12-29T08:48:18;11.00;99.90
14893;DHT22;7538;53.626;9.906;2022-12-29T08:50:48;11.10;99.90
14893;DHT22;7538;53.626;9.906;2022-12-29T08:53:15;11.40;99.90
14893;DHT22;7538;53.626;9.906;2022-12-29T08:55:44;11.30;99.90
14893;DHT22;7538;53.626;9.906;2022-12-29T08:58:13;12.20;99.90
14893;DHT22;7538;53.626;9.906;2022-12-29T09:00:42;11.30;99.90
14893;DHT22;7538;53.626;9.906;2022-12-29T09:03:09;11.30;99.90
14893;DHT22;7538;53.626;9.906;2022-12-29T09:05:36;11.50;99.90
14893;DHT22;7538;53.626;9.906;2022-12-29T09:08:03;11.50;99.90
14893;DHT22;7538;53.626;9.906;2022-12-29T09:10:30;11.70;99.90
14893;DHT22;7538;53.626;9.906;2022-12-29T09:12:57;11.80;99.90
14893;DHT22;7538;53.626;9.906;2022-12-29T09:15:25;11.90;99.90
14893;DHT22;7538;53.626;9.906;2022-12-29T09:17:52;12.00;99.90
14893;DHT22;7538;53.626;9.906;2022-12-29T09:20:20;12.00;99.90
14893;DHT22;7538;53.626;9.906;2022-12-29T09:22:48;12.10;99.90
14893;DHT22;7538;53.626;9.906;2022-12-29T09:25:15;12.10;99.90
14893;DHT22;7538;53.626;9.906;2022-12-29T09:27:42;12.00;99.90
14893;DHT22;7538;53.626;9.906;2022-12-29T09:30:11;11.90;99.90
14893;DHT22;7538;53.626;9.906;2022-12-29T09:32:41;11.80;99.90
14893;DHT22;7538;53.626;9.906;2022-12-29T09:35:08;11.80;99.90
14893;DHT22;7538;53.626;9.906;2022-12-29T09:37:35;11.90;99.90
14893;DHT22;7538;53.626;9.906;2022-12-29T09:40:03;12.30;99.90
14893;DHT22;7538;53.626;9.906;2022-12-29T09:42:34;12.50;99.90
14893;DHT22;7538;53.626;9.906;2022-12-29T09:45:12;12.70;99.90
14893;DHT22;7538;53.626;9.906;2022-12-29T09:47:42;12.80;99.90
14893;DHT22;7538;53.626;9.906;2022-12-29T09:50:17;12.80;99.90
14893;DHT22;7538;53.626;9.906;2022-12-29T09:52:49;12.70;99.90
14893;DHT22;7538;53.626;9.906;2022-12-29T09:55:20;12.70;99.90
14893;DHT22;7538;53.626;9.906;2022-12-29T09:57:52;12.70;99.90
14893;DHT22;7538;53.626;9.906;2022-12-29T10:00:22;12.70;99.90
14893;DHT22;7538;53.626;9.906;2022-12-29T10:02:54;12.80;99.90
14893;DHT22;7538;53.626;9.906;2022-12-29T10:05:33;12.80;99.90
14893;DHT22;7538;53.626;9.906;2022-12-29T10:08:10;12.70;99.90
14893;DHT22;7538;53.626;9.906;2022-12-29T10:10:46;12.60;99.90
14893;DHT22;7538;53.626;9.906;2022-12-29T10:13:31;12.70;99.90
14893;DHT22;7538;53.626;9.906;2022-12-29T10:16:04;12.70;99.90
14893;DHT22;7538;53.626;9.906;2022-12-29T10:19:01;12.60;99.90
14893;DHT22;7538;53.626;9.906;2022-12-29T10:21:39;12.50;99.90
14893;DHT22;7538;53.626;9.906;2022-12-29T10:24:12;12.50;99.90
14893;DHT22;7538;53.626;9.906;2022-12-29T10:26:40;12.40;99.90
14893;DHT22;7538;53.626;9.906;2022-12-29T10:29:14;12.40;99.90
14893;DHT22;7538;53.626;9.906;2022-12-29T10:31:43;12.30;99.90
14893;DHT22;7538;53.626;9.906;2022-12-29T10:34:16;12.20;99.90
14893;DHT22;7538;53.626;9.906;2022-12-29T10:36:47;12.00;99.90
14893;DHT22;7538;53.626;9.906;2022-12-29T10:39:18;12.00;99.90
14893;DHT22;7538;53.626;9.906;2022-12-29T10:41:50;11.90;99.90
14893;DHT22;7538;53.626;9.906;2022-12-29T10:44:18;11.90;99.90
14893;DHT22;7538;53.626;9.906;2022-12-29T10:46:54;11.80;99.90
14893;DHT22;7538;53.626;9.906;2022-12-29T10:49:25;11.80;99.90
14893;DHT22;7538;53.626;9.906;2022-12-29T10:51:56;11.80;99.90
14893;DHT22;7538;53.626;9.906;2022-12-29T10:54:26;11.70;99.90
14893;DHT22;7538;53.626;9.906;2022-12-29T10:56:57;11.80;99.90
14893;DHT22;7538;53.626;9.906;2022-12-29T10:59:29;11.80;99.90
14893;DHT22;7538;53.626;9.906;2022-12-29T11:02:01;11.70;99.90
14893;DHT22;7538;53.626;9.906;2022-12-29T11:04:45;11.70;99.90
14893;DHT22;7538;53.626;9.906;2022-12-29T11:07:19;11.60;99.90
14893;DHT22;7538;53.626;9.906;2022-12-29T11:09:47;11.60;99.90
14893;DHT22;7538;53.626;9.906;2022-12-29T11:12:23;11.60;99.90
14893;DHT22;7538;53.626;9.906;2022-12-29T11:15:15;11.60;99.90
14893;DHT22;7538;53.626;9.906;2022-12-29T11:17:47;11.70;99.90
14893;DHT22;7538;53.626;9.906;2022-12-29T11:20:30;11.80;99.90
14893;DHT22;7538;53.626;9.906;2022-12-29T11:22:58;11.90;99.90
14893;DHT22;7538;53.626;9.906;2022-12-29T11:25:25;12.00;99.90
14893;DHT22;7538;53.626;9.906;2022-12-29T11:27:56;12.00;99.90
14893;DHT22;7538;53.626;9.906;2022-12-29T11:30:25;12.10;99.90
14893;DHT22;7538;53.626;9.906;2022-12-29T11:32:53;12.00;99.90
14893;DHT22;7538;53.626;9.906;2022-12-29T11:35:33;12.00;99.90
14893;DHT22;7538;53.626;9.906;2022-12-29T11:38:02;12.10;99.90
14893;DHT22;7538;53.626;9.906;2022-12-29T11:40:29;12.00;99.90
14893;DHT22;7538;53.626;9.906;2022-12-29T11:42:58;12.10;99.90
14893;DHT22;7538;53.626;9.906;2022-12-29T11:45:31;12.10;99.90
14893;DHT22;7538;53.626;9.906;2022-12-29T11:48:01;12.10;99.90
14893;DHT22;7538;53.626;9.906;2022-12-29T11:50:36;12.10;99.90
14893;DHT22;7538;53.626;9.906;2022-12-29T11:53:06;12.00;99.90
14893;DHT22;7538;53.626;9.906;2022-12-29T11:55:36;12.00;99.90
14893;DHT22;7538;53.626;9.906;2022-12-29T11:58:04;12.00;99.90
14893;DHT22;7538;53.626;9.906;2022-12-29T12:00:35;10.90;99.90
14893;DHT22;7538;53.626;9.906;2022-12-29T12:03:13;12.00;99.90
14893;DHT22;7538;53.626;9.906;2022-12-29T12:05:46;12.10;99.90
14893;DHT22;7538;53.626;9.906;2022-12-29T12:08:21;12.20;99.90
14893;DHT22;7538;53.626;9.906;2022-12-29T12:10:54;12.20;99.90
14893;DHT22;7538;53.626;9.906;2022-12-29T12:13:27;12.20;99.90
14893;DHT22;7538;53.626;9.906;2022-12-29T12:16:01;12.20;99.90
14893;DHT22;7538;53.626;9.906;2022-12-29T12:18:36;12.30;99.90
14893;DHT22;7538;53.626;9.906;2022-12-29T12:21:10;12.10;99.90
14893;DHT22;7538;53.626;9.906;2022-12-29T12:23:46;12.10;99.90
14893;DHT22;7538;53.626;9.906;2022-12-29T12:26:21;12.10;99.90
14893;DHT22;7538;53.626;9.906;2022-12-29T12:28:54;12.40;99.90
14893;DHT22;7538;53.626;9.906;2022-12-29T12:31:32;12.10;99.90
14893;DHT22;7538;53.626;9.906;2022-12-29T12:34:11;12.00;99.90
14893;DHT22;7538;53.626;9.906;2022-12-29T12:37:04;12.00;99.90
14893;DHT22;7538;53.626;9.906;2022-12-29T12:39:43;11.90;99.90
14893;DHT22;7538;53.626;9.906;2022-12-29T12:42:21;11.80;99.90
14893;DHT22;7538;53.626;9.906;2022-12-29T12:45:08;11.80;99.90
14893;DHT22;7538;53.626;9.906;2022-12-29T12:47:51;11.70;99.90
14893;DHT22;7538;53.626;9.906;2022-12-29T12:50:30;11.70;99.90
14893;DHT22;7538;53.626;9.906;2022-12-29T12:53:12;10.80;99.90
14893;DHT22;7538;53.626;9.906;2022-12-29T12:55:54;11.70;99.90
14893;DHT22;7538;53.626;9.906;2022-12-29T12:58:30;11.70;99.90
14893;DHT22;7538;53.626;9.906;2022-12-29T13:01:10;11.70;99.90
14893;DHT22;7538;53.626;9.906;2022-12-29T13:03:49;11.70;99.90
14893;DHT22;7538;53.626;9.906;2022-12-29T13:06:24;11.70;99.90
14893;DHT22;7538;53.626;9.906;2022-12-29T13:12:03;11.60;99.90
14893;DHT22;7538;53.626;9.906;2022-12-29T13:14:40;11.60;99.90
14893;DHT22;7538;53.626;9.906;2022-12-29T13:17:15;11.60;99.90
14893;DHT22;7538;53.626;9.906;2022-12-29T13:19:50;11.60;99.90
14893;DHT22;7538;53.626;9.906;2022-12-29T13:22:23;11.60;99.90
14893;DHT22;7538;53.626;9.906;2022-12-29T13:25:04;11.60;99.90
14893;DHT22;7538;53.626;9.906;2022-12-29T13:27:40;11.60;99.90
14893;DHT22;7538;53.626;9.906;2022-12-29T13:30:10;11.60;99.90
14893;DHT22;7538;53.626;9.906;2022-12-29T13:32:49;11.60;99.90
14893;DHT22;7538;53.626;9.906;2022-12-29T13:35:48;11.40;99.90
14893;DHT22;7538;53.626;9.906;2022-12-29T13:38:21;11.30;99.90
14893;DHT22;7538;53.626;9.906;2022-12-29T13:40:54;11.10;99.90
14893;DHT22;7538;53.626;9.906;2022-12-29T13:43:22;11.10;99.90
14893;DHT22;7538;53.626;9.906;2022-12-29T13:45:56;11.00;99.90
14893;DHT22;7538;53.626;9.906;2022-12-29T13:48:31;11.00;99.90
14893;DHT22;7538;53.626;9.906;2022-12-29T13:51:01;11.00;99.90
14893;DHT22;7538;53.626;9.906;2022-12-29T13:53:35;11.00;99.90
14893;DHT22;7538;53.626;9.906;2022-12-29T13:56:12;11.00;99.90
14893;DHT22;7538;53.626;9.906;2022-12-29T13:58:44;11.00;99.90
14893;DHT22;7538;53.626;9.906;2022-12-29T14:01:17;10.90;99.90
14893;DHT22;7538;53.626;9.906;2022-12-29T14:03:48;10.70;99.90
14893;DHT22;7538;53.626;9.906;2022-12-29T14:06:21;10.50;99.90
14893;DHT22;7538;53.626;9.906;2022-12-29T14:08:50;10.30;99.90
14893;DHT22;7538;53.626;9.906;2022-12-29T14:11:22;10.00;99.90
14893;DHT22;7538;53.626;9.906;2022-12-29T14:13:51;9.90;99.90
14893;DHT22;7538;53.626;9.906;2022-12-29T14:16:26;9.80;99.90
14893;DHT22;7538;53.626;9.906;2022-12-29T14:18:55;9.70;99.90
14893;DHT22;7538;53.626;9.906;2022-12-29T14:21:25;9.70;99.90
14893;DHT22;7538;53.626;9.906;2022-12-29T14:26:45;9.60;99.90
14893;DHT22;7538;53.626;9.906;2022-12-29T14:29:41;9.60;99.90
14893;DHT22;7538;53.626;9.906;2022-12-29T14:32:36;9.50;99.90
14893;DHT22;7538;53.626;9.906;2022-12-29T14:35:38;9.50;99.90
14893;DHT22;7538;53.626;9.906;2022-12-29T14:38:07;9.50;99.90
14893;DHT22;7538;53.626;9.906;2022-12-29T14:40:34;9.50;99.90
14893;DHT22;7538;53.626;9.906;2022-12-29T14:43:12;9.50;99.90
14893;DHT22;7538;53.626;9.906;2022-12-29T14:45:41;9.50;99.90
14893;DHT22;7538;53.626;9.906;2022-12-29T14:48:27;9.50;99.90
14893;DHT22;7538;53.626;9.906;2022-12-29T14:50:55;9.60;99.90
14893;DHT22;7538;53.626;9.906;2022-12-29T14:53:45;9.50;99.90
14893;DHT22;7538;53.626;9.906;2022-12-29T14:56:14;9.50;99.90
14893;DHT22;7538;53.626;9.906;2022-12-29T14:58:48;9.50;99.90
14893;DHT22;7538;53.626;9.906;2022-12-29T15:01:19;9.50;99.90
14893;DHT22;7538;53.626;9.906;2022-12-29T15:03:49;9.40;99.90
14893;DHT22;7538;53.626;9.906;2022-12-29T15:06:17;9.40;99.90
14893;DHT22;7538;53.626;9.906;2022-12-29T15:08:50;9.40;99.90
14893;DHT22;7538;53.626;9.906;2022-12-29T15:11:21;9.30;99.90
14893;DHT22;7538;53.626;9.906;2022-12-29T15:13:51;9.30;99.90
14893;DHT22;7538;53.626;9.906;2022-12-29T15:16:23;9.20;99.90
14893;DHT22;7538;53.626;9.906;2022-12-29T15:18:50;9.20;99.90
14893;DHT22;7538;53.626;9.906;2022-12-29T15:21:22;9.20;99.90
14893;DHT22;7538;53.626;9.906;2022-12-29T15:23:50;9.20;99.90
14893;DHT22;7538;53.626;9.906;2022-12-29T15:26:17;9.20;99.90
14893;DHT22;7538;53.626;9.906;2022-12-29T15:28:50;9.20;99.90
14893;DHT22;7538;53.626;9.906;2022-12-29T15:31:19;9.20;99.90
14893;DHT22;7538;53.626;9.906;2022-12-29T15:33:48;9.30;99.90
14893;DHT22;7538;53.626;9.906;2022-12-29T15:36:19;9.30;99.90
14893;DHT22;7538;53.626;9.906;2022-12-29T15:38:47;9.30;99.90
14893;DHT22;7538;53.626;9.906;2022-12-29T15:41:26;9.30;99.90
14893;DHT22;7538;53.626;9.906;2022-12-29T15:44:06;9.30;99.90
14893;DHT22;7538;53.626;9.906;2022-12-29T15:46:35;9.30;99.90
14893;DHT22;7538;53.626;9.906;2022-12-29T15:49:05;9.30;99.90
14893;DHT22;7538;53.626;9.906;2022-12-29T15:51:35;9.30;99.90
14893;DHT22;7538;53.626;9.906;2022-12-29T15:54:04;9.30;99.90
14893;DHT22;7538;53.626;9.906;2022-12-29T15:56:32;9.30;99.90
14893;DHT22;7538;53.626;9.906;2022-12-29T15:59:01;9.30;99.90
14893;DHT22;7538;53.626;9.906;2022-12-29T16:01:30;9.30;99.90
14893;DHT22;7538;53.626;9.906;2022-12-29T16:03:58;9.30;99.90
14893;DHT22;7538;53.626;9.906;2022-12-29T16:06:28;9.30;99.90
14893;DHT22;7538;53.626;9.906;2022-12-29T16:08:57;9.30;99.90
14893;DHT22;7538;53.626;9.906;2022-12-29T16:11:27;9.20;99.90
14893;DHT22;7538;53.626;9.906;2022-12-29T16:13:57;9.20;99.90
14893;DHT22;7538;53.626;9.906;2022-12-29T16:16:28;9.10;99.90
14893;DHT22;7538;53.626;9.906;2022-12-29T16:18:56;9.10;99.90
14893;DHT22;7538;53.626;9.906;2022-12-29T16:21:25;9.10;99.90
14893;DHT22;7538;53.626;9.906;2022-12-29T16:23:55;9.00;99.90
14893;DHT22;7538;53.626;9.906;2022-12-29T16:26:25;9.00;99.90